createdAt,value
2022-10-01T00:02:18.543Z,13.90
2022-10-01T00:04:48.813Z,13.95
2022-10-01T00:07:19.046Z,12.88
2022-10-01T00:09:48.980Z,11.52
2022-10-01T00:12:18.241Z,10.25
2022-10-01T00:14:47.475Z,10.70
2022-10-01T00:17:16.705Z,10.85
2022-10-01T00:19:45.906Z,11.65
2022-10-01T00:22:16.263Z,13.35
2022-10-01T00:24:45.463Z,16.63
2022-10-01T00:27:15.227Z,16.38
2022-10-01T00:29:46.728Z,14.65
2022-10-01T00:32:16.914Z,14.13
2022-10-01T00:34:46.129Z,18.05
2022-10-01T00:37:15.584Z,15.07
2022-10-01T00:39:48.455Z,16.50
2022-10-01T00:44:54.567Z,13.38
2022-10-01T00:47:40.013Z,12.23
2022-10-01T00:50:19.797Z,12.35
2022-10-01T00:52:54.551Z,15.07
2022-10-01T00:55:32.459Z,15.88
2022-10-01T00:58:02.696Z,15.73
2022-10-01T01:00:32.913Z,13.75
2022-10-01T01:03:02.055Z,14.60
2022-10-01T01:05:31.177Z,17.48
2022-10-01T01:08:02.960Z,14.20
2022-10-01T01:10:57.159Z,13.38
2022-10-01T01:13:43.944Z,13.75
2022-10-01T01:16:23.219Z,13.00
2022-10-01T01:19:00.858Z,11.20
2022-10-01T01:21:32.366Z,13.45
2022-10-01T01:24:31.480Z,11.63
2022-10-01T01:27:35.031Z,14.50
2022-10-01T01:30:07.531Z,9.90
2022-10-01T01:32:43.131Z,11.80
2022-10-01T01:35:17.558Z,29.02
2022-10-01T01:37:53.984Z,37.72
2022-10-01T01:40:23.958Z,31.20
2022-10-01T01:42:54.674Z,23.92
2022-10-01T01:45:30.128Z,14.30
2022-10-01T01:48:02.042Z,11.95
2022-10-01T01:50:35.977Z,10.50
2022-10-01T01:53:05.153Z,14.23
2022-10-01T01:55:36.991Z,12.25
2022-10-01T01:58:06.433Z,10.68
2022-10-01T02:00:36.390Z,14.50
2022-10-01T02:03:07.564Z,13.38
2022-10-01T02:05:45.130Z,14.48
2022-10-01T02:08:18.880Z,9.88
2022-10-01T02:11:11.435Z,12.20
2022-10-01T02:14:05.235Z,12.30
2022-10-01T02:16:46.967Z,8.75
2022-10-01T02:19:37.243Z,10.07
2022-10-01T02:22:13.451Z,9.43
2022-10-01T02:25:00.442Z,10.85
2022-10-01T02:27:32.481Z,11.05
2022-10-01T02:30:09.380Z,9.73
2022-10-01T02:32:41.347Z,9.57
2022-10-01T02:35:14.470Z,11.50
2022-10-01T02:37:46.373Z,11.57
2022-10-01T02:40:20.349Z,11.93
2022-10-01T02:42:54.635Z,10.95
2022-10-01T02:45:29.266Z,10.57
2022-10-01T02:48:11.816Z,10.73
2022-10-01T02:50:50.754Z,8.93
2022-10-01T02:53:30.894Z,10.55
2022-10-01T02:56:04.824Z,9.30
2022-10-01T02:58:34.142Z,7.80
2022-10-01T03:01:03.465Z,9.38
2022-10-01T03:03:33.814Z,7.40
2022-10-01T03:06:02.974Z,10.38
2022-10-01T03:08:32.917Z,9.30
2022-10-01T03:11:02.492Z,10.07
2022-10-01T03:13:31.681Z,7.90
2022-10-01T03:16:00.889Z,10.05
2022-10-01T03:18:30.179Z,8.98
2022-10-01T03:20:59.323Z,8.77
2022-10-01T03:23:28.461Z,12.80
2022-10-01T03:25:58.000Z,14.07
2022-10-01T03:28:27.775Z,10.77
2022-10-01T03:31:07.559Z,15.32
2022-10-01T03:33:37.458Z,12.60
2022-10-01T03:36:07.163Z,12.13
2022-10-01T03:38:36.353Z,10.85
2022-10-01T03:41:05.655Z,10.70
2022-10-01T03:43:34.846Z,13.73
2022-10-01T03:46:04.126Z,10.02
2022-10-01T03:48:33.407Z,13.60
2022-10-01T03:51:15.590Z,9.77
2022-10-01T03:53:55.281Z,9.88
2022-10-01T03:56:24.763Z,9.43
2022-10-01T03:58:58.173Z,7.97
2022-10-01T04:01:27.583Z,9.05
2022-10-01T04:04:03.491Z,11.52
2022-10-01T04:06:33.205Z,9.90
2022-10-01T04:09:02.413Z,10.05
2022-10-01T04:11:32.126Z,7.95
2022-10-01T04:14:04.486Z,9.82
2022-10-01T04:16:37.722Z,10.05
2022-10-01T04:19:10.606Z,10.75
2022-10-01T04:21:40.590Z,10.63
2022-10-01T04:24:10.112Z,12.05
2022-10-01T04:26:39.427Z,11.70
2022-10-01T04:29:08.792Z,10.98
2022-10-01T04:31:38.723Z,10.52
2022-10-01T04:34:11.146Z,10.48
2022-10-01T04:36:40.313Z,9.95
2022-10-01T04:39:09.723Z,12.02
2022-10-01T04:41:39.368Z,9.57
2022-10-01T04:44:08.871Z,7.60
2022-10-01T04:46:38.114Z,7.47
2022-10-01T04:49:07.502Z,9.85
2022-10-01T04:51:37.058Z,11.60
2022-10-01T04:54:06.411Z,10.55
2022-10-01T04:56:39.705Z,9.48
2022-10-01T04:59:08.959Z,10.02
2022-10-01T05:01:38.582Z,8.68
2022-10-01T05:04:09.836Z,7.80
2022-10-01T05:06:42.217Z,7.82
2022-10-01T05:09:14.052Z,6.70
2022-10-01T05:11:46.151Z,9.50
2022-10-01T05:14:16.708Z,8.68
2022-10-01T05:16:46.034Z,7.53
2022-10-01T05:19:18.540Z,10.07
2022-10-01T05:21:48.230Z,6.38
2022-10-01T05:24:18.598Z,8.57
2022-10-01T05:26:47.997Z,6.43
2022-10-01T05:29:17.342Z,7.45
2022-10-01T05:31:46.640Z,7.20
2022-10-01T05:34:15.928Z,6.25
2022-10-01T05:36:45.567Z,9.05
2022-10-01T05:39:14.773Z,8.35
2022-10-01T05:41:44.187Z,7.15
2022-10-01T05:44:13.361Z,6.93
2022-10-01T05:46:45.089Z,11.52
2022-10-01T05:49:14.239Z,11.05
2022-10-01T05:51:43.437Z,8.00
2022-10-01T05:54:14.416Z,7.15
2022-10-01T05:56:44.262Z,9.07
2022-10-01T05:59:13.419Z,8.52
2022-10-01T06:01:42.653Z,7.60
2022-10-01T06:04:12.555Z,6.93
2022-10-01T06:06:41.713Z,5.75
2022-10-01T06:09:10.995Z,6.18
2022-10-01T06:11:40.607Z,7.43
2022-10-01T06:14:09.770Z,8.52
2022-10-01T06:16:39.065Z,7.28
2022-10-01T06:19:08.292Z,8.30
2022-10-01T06:21:37.850Z,7.18
2022-10-01T06:24:07.471Z,17.80
2022-10-01T06:26:37.767Z,8.38
2022-10-01T06:29:06.886Z,8.93
2022-10-01T06:31:36.539Z,7.68
2022-10-01T06:34:07.060Z,10.60
2022-10-01T06:36:36.622Z,9.98
2022-10-01T06:39:06.079Z,7.15
2022-10-01T06:41:36.139Z,8.30
2022-10-01T06:44:05.859Z,7.30
2022-10-01T06:46:35.037Z,8.38
2022-10-01T06:49:04.466Z,9.23
2022-10-01T06:51:53.231Z,8.68
2022-10-01T06:54:22.580Z,8.98
2022-10-01T06:56:51.739Z,6.85
2022-10-01T06:59:21.081Z,9.15
2022-10-01T07:01:56.172Z,11.35
2022-10-01T07:04:25.716Z,10.88
2022-10-01T07:06:56.626Z,5.50
2022-10-01T07:09:27.593Z,8.55
2022-10-01T07:11:59.167Z,5.95
2022-10-01T07:14:28.337Z,7.68
2022-10-01T07:16:57.598Z,7.05
2022-10-01T07:19:26.780Z,7.88
2022-10-01T07:21:56.248Z,7.38
2022-10-01T07:24:25.505Z,10.30
2022-10-01T07:26:56.993Z,12.35
2022-10-01T07:29:26.581Z,5.72
2022-10-01T07:32:05.514Z,5.03
2022-10-01T07:34:34.761Z,6.15
2022-10-01T07:37:04.910Z,4.90
2022-10-01T07:39:34.548Z,5.70
2022-10-01T07:42:15.418Z,6.25
2022-10-01T07:44:47.963Z,6.70
2022-10-01T07:47:20.239Z,5.95
2022-10-01T07:49:49.627Z,4.63
2022-10-01T07:52:18.785Z,5.95
2022-10-01T07:54:50.495Z,6.28
2022-10-01T07:57:19.735Z,6.55
2022-10-01T07:59:55.672Z,5.60
2022-10-01T08:02:25.548Z,6.90
2022-10-01T08:05:14.647Z,8.68
2022-10-01T08:07:44.251Z,7.22
2022-10-01T08:10:13.681Z,5.88
2022-10-01T08:12:44.227Z,8.25
2022-10-01T08:15:16.039Z,3.78
2022-10-01T08:17:49.561Z,3.57
2022-10-01T08:20:18.866Z,3.58
2022-10-01T08:22:48.089Z,5.22
2022-10-01T08:25:17.378Z,4.82
2022-10-01T08:27:46.607Z,3.95
2022-10-01T08:30:15.833Z,5.95
2022-10-01T08:32:45.220Z,3.45
2022-10-01T08:35:14.520Z,6.25
2022-10-01T08:37:43.655Z,5.70
2022-10-01T08:40:13.397Z,7.28
2022-10-01T08:43:07.791Z,4.60
2022-10-01T08:45:55.012Z,5.40
2022-10-01T08:48:32.408Z,3.83
2022-10-01T08:51:24.764Z,3.45
2022-10-01T08:54:17.356Z,4.63
2022-10-01T08:56:49.099Z,5.53
2022-10-01T08:59:42.227Z,5.63
2022-10-01T09:05:01.733Z,5.50
2022-10-01T09:07:48.649Z,5.13
2022-10-01T09:10:57.011Z,4.80
2022-10-01T09:13:51.124Z,7.03
2022-10-01T09:16:40.149Z,7.15
2022-10-01T09:19:23.944Z,5.07
2022-10-01T09:22:04.895Z,7.32
2022-10-01T09:24:43.572Z,4.93
2022-10-01T09:27:17.877Z,6.22
2022-10-01T09:30:06.673Z,9.57
2022-10-01T09:32:44.927Z,7.57
2022-10-01T09:35:41.855Z,6.95
2022-10-01T09:38:24.922Z,6.88
2022-10-01T09:40:57.121Z,6.07
2022-10-01T09:43:31.005Z,6.68
2022-10-01T09:46:00.524Z,5.57
2022-10-01T09:48:50.848Z,6.57
2022-10-01T09:51:43.346Z,6.47
2022-10-01T09:54:21.175Z,5.50
2022-10-01T09:57:01.644Z,7.43
2022-10-01T09:59:42.049Z,7.88
2022-10-01T10:02:33.941Z,6.38
2022-10-01T10:05:10.726Z,5.80
2022-10-01T10:07:43.783Z,5.15
2022-10-01T10:10:28.944Z,5.22
2022-10-01T10:13:16.229Z,5.03
2022-10-01T10:15:52.971Z,7.35
2022-10-01T10:18:30.794Z,5.68
2022-10-01T10:21:03.806Z,7.78
2022-10-01T10:23:33.101Z,6.63
2022-10-01T10:26:06.393Z,8.15
2022-10-01T10:28:45.932Z,7.78
2022-10-01T10:31:22.164Z,7.28
2022-10-01T10:34:01.767Z,6.65
2022-10-01T10:36:35.861Z,6.22
2022-10-01T10:39:08.620Z,8.85
2022-10-01T10:41:38.071Z,6.78
2022-10-01T10:44:09.854Z,6.93
2022-10-01T10:46:45.902Z,7.20
2022-10-01T10:49:36.447Z,9.57
2022-10-01T10:52:19.000Z,7.65
2022-10-01T10:54:50.739Z,10.45
2022-10-01T10:57:23.288Z,7.97
2022-10-01T11:00:01.137Z,8.43
2022-10-01T11:02:33.317Z,9.48
2022-10-01T11:05:08.541Z,9.07
2022-10-01T11:07:37.902Z,10.30
2022-10-01T11:10:34.281Z,11.20
2022-10-01T11:13:15.887Z,13.55
2022-10-01T11:15:49.601Z,12.68
2022-10-01T11:18:37.616Z,14.18
2022-10-01T11:21:20.740Z,14.65
2022-10-01T11:24:04.569Z,12.30
2022-10-01T11:26:43.621Z,11.45
2022-10-01T11:29:20.894Z,13.00
2022-10-01T11:31:59.277Z,10.13
2022-10-01T11:34:52.103Z,10.75
2022-10-01T11:37:25.765Z,12.02
2022-10-01T11:40:00.265Z,12.00
2022-10-01T11:42:36.913Z,10.05
2022-10-01T11:45:16.658Z,8.45
2022-10-01T11:47:53.519Z,9.18
2022-10-01T11:50:39.256Z,9.57
2022-10-01T11:53:18.661Z,6.82
2022-10-01T11:56:28.523Z,8.35
2022-10-01T11:59:22.986Z,7.50
2022-10-01T12:02:16.673Z,7.93
2022-10-01T12:04:58.712Z,6.50
2022-10-01T12:07:47.283Z,6.50
2022-10-01T12:10:26.302Z,5.85
2022-10-01T12:13:16.881Z,6.13
2022-10-01T12:15:58.892Z,5.68
2022-10-01T12:18:38.604Z,6.28
2022-10-01T12:21:15.879Z,9.07
2022-10-01T12:23:54.174Z,5.22
2022-10-01T12:26:43.470Z,8.55
2022-10-01T12:29:18.052Z,7.70
2022-10-01T12:31:50.279Z,7.97
2022-10-01T12:34:26.686Z,9.77
2022-10-01T12:37:08.866Z,5.75
2022-10-01T12:40:04.887Z,7.27
2022-10-01T12:42:55.041Z,5.30
2022-10-01T12:45:31.739Z,6.90
2022-10-01T12:48:17.813Z,5.85
2022-10-01T12:50:55.233Z,8.05
2022-10-01T12:53:47.927Z,6.03
2022-10-01T12:56:31.475Z,7.43
2022-10-01T12:59:28.393Z,6.60
2022-10-01T13:02:36.787Z,7.40
2022-10-01T13:05:26.129Z,7.20
2022-10-01T13:08:06.354Z,6.28
2022-10-01T13:11:04.976Z,7.50
2022-10-01T13:13:36.020Z,9.35
2022-10-01T13:16:09.774Z,5.40
2022-10-01T13:18:43.405Z,7.32
2022-10-01T13:21:24.929Z,7.00
2022-10-01T13:24:02.326Z,6.10
2022-10-01T13:26:57.359Z,5.85
2022-10-01T13:29:31.308Z,9.85
2022-10-01T13:32:04.527Z,6.05
2022-10-01T13:34:44.063Z,6.32
2022-10-01T13:37:14.130Z,10.00
2022-10-01T13:39:44.871Z,6.70
2022-10-01T13:42:24.558Z,10.27
2022-10-01T13:44:58.357Z,7.45
2022-10-01T13:47:29.274Z,9.25
2022-10-01T13:50:05.743Z,9.35
2022-10-01T13:52:35.841Z,7.03
2022-10-01T13:55:05.129Z,11.00
2022-10-01T13:57:38.549Z,9.70
2022-10-01T14:00:15.584Z,7.47
2022-10-01T14:02:47.391Z,7.30
2022-10-01T14:05:17.560Z,12.20
2022-10-01T14:07:50.148Z,10.73
2022-10-01T14:10:20.421Z,10.50
2022-10-01T14:13:10.562Z,10.13
2022-10-01T14:16:01.907Z,7.00
2022-10-01T14:18:38.981Z,8.75
2022-10-01T14:21:31.856Z,11.27
2022-10-01T14:24:25.594Z,8.77
2022-10-01T14:26:59.835Z,8.70
2022-10-01T14:30:08.219Z,7.72
2022-10-01T14:33:16.896Z,9.82
2022-10-01T14:35:56.631Z,17.40
2022-10-01T14:38:26.763Z,13.75
2022-10-01T14:40:56.273Z,15.93
2022-10-01T14:43:27.878Z,12.23
2022-10-01T14:46:00.753Z,15.27
2022-10-01T14:48:32.928Z,15.07
2022-10-01T14:51:05.183Z,14.45
2022-10-01T14:53:45.115Z,20.00
2022-10-01T14:56:16.883Z,13.98
2022-10-01T14:58:50.546Z,15.60
2022-10-01T15:01:23.164Z,15.07
2022-10-01T15:03:54.064Z,14.05
2022-10-01T15:06:28.740Z,13.85
2022-10-01T15:09:09.828Z,12.18
2022-10-01T15:11:44.413Z,12.07
2022-10-01T15:14:20.780Z,11.15
2022-10-01T15:16:51.287Z,12.45
2022-10-01T15:19:24.338Z,16.17
2022-10-01T15:21:56.488Z,15.07
2022-10-01T15:24:44.358Z,13.82
2022-10-01T15:27:16.373Z,12.70
2022-10-01T15:29:47.508Z,14.90
2022-10-01T15:32:19.332Z,13.98
2022-10-01T15:34:57.840Z,13.33
2022-10-01T15:37:33.893Z,14.25
2022-10-01T15:40:04.082Z,14.27
2022-10-01T15:42:36.509Z,19.80
2022-10-01T15:45:23.370Z,15.13
2022-10-01T15:47:54.279Z,12.65
2022-10-01T15:50:26.433Z,13.82
2022-10-01T15:53:03.391Z,15.32
2022-10-01T15:55:37.906Z,11.35
2022-10-01T15:58:16.523Z,12.18
2022-10-01T16:01:00.523Z,14.80
2022-10-01T16:03:50.894Z,12.52
2022-10-01T16:06:31.049Z,18.52
2022-10-01T16:09:08.540Z,11.40
2022-10-01T16:12:16.873Z,11.00
2022-10-01T16:15:06.723Z,17.52
2022-10-01T16:17:38.615Z,10.95
2022-10-01T16:20:31.322Z,18.60
2022-10-01T16:23:39.651Z,9.90
2022-10-01T16:26:30.015Z,14.77
2022-10-01T16:29:01.821Z,10.98
2022-10-01T16:31:32.487Z,13.90
2022-10-01T16:34:01.867Z,12.38
2022-10-01T16:36:33.741Z,15.30
2022-10-01T16:39:03.080Z,14.55
2022-10-01T16:41:34.444Z,11.13
2022-10-01T16:44:06.812Z,15.55
2022-10-01T16:46:36.318Z,13.63
2022-10-01T16:49:11.691Z,15.15
2022-10-01T16:51:42.432Z,10.82
2022-10-01T16:54:23.162Z,13.27
2022-10-01T16:56:53.880Z,16.05
2022-10-01T17:03:13.873Z,13.40
2022-10-01T17:05:43.135Z,24.67
2022-10-01T17:08:12.834Z,15.00
2022-10-01T17:10:46.714Z,14.77
2022-10-01T17:13:17.014Z,11.77
2022-10-01T17:15:46.378Z,13.25
2022-10-01T17:18:15.657Z,7.45
2022-10-01T17:20:44.880Z,8.50
2022-10-01T17:23:16.751Z,7.80
2022-10-01T17:25:46.535Z,3.73
2022-10-01T17:28:20.373Z,4.93
2022-10-01T17:30:51.032Z,3.60
2022-10-01T17:33:21.515Z,5.50
2022-10-01T17:35:55.921Z,2.40
2022-10-01T17:38:25.408Z,4.18
2022-10-01T17:40:56.840Z,3.70
2022-10-01T17:43:26.294Z,3.63
2022-10-01T17:46:01.552Z,4.07
2022-10-01T17:48:31.547Z,3.50
2022-10-01T17:51:07.044Z,9.02
2022-10-01T17:53:42.590Z,2.10
2022-10-01T17:56:16.084Z,2.65
2022-10-01T17:58:46.164Z,3.25
2022-10-01T18:01:18.787Z,3.72
2022-10-01T18:03:48.230Z,2.97
2022-10-01T18:06:17.585Z,6.03
2022-10-01T18:09:01.716Z,1.42
2022-10-01T18:11:31.556Z,2.38
2022-10-01T18:14:01.393Z,2.58
2022-10-01T18:16:30.807Z,2.65
2022-10-01T18:21:52.457Z,2.65
2022-10-01T18:24:21.752Z,3.65
2022-10-01T18:26:51.162Z,2.85
2022-10-01T18:29:22.958Z,6.18
2022-10-01T18:31:55.790Z,2.40
2022-10-01T18:34:34.529Z,3.42
2022-10-01T18:37:10.100Z,2.00
2022-10-01T18:39:46.309Z,3.20
2022-10-01T18:42:22.984Z,4.00
2022-10-01T18:44:58.076Z,1.77
2022-10-01T18:47:46.926Z,2.28
2022-10-01T18:50:55.273Z,4.72
2022-10-01T18:53:37.825Z,2.85
2022-10-01T18:56:33.071Z,4.38
2022-10-01T18:59:04.750Z,3.38
2022-10-01T19:01:44.115Z,3.78
2022-10-01T19:04:48.978Z,3.35
2022-10-01T19:07:45.141Z,3.30
2022-10-01T19:10:29.074Z,2.75
2022-10-01T19:13:08.782Z,4.50
2022-10-01T19:15:58.033Z,5.35
2022-10-01T19:18:41.397Z,3.95
2022-10-01T19:21:20.707Z,1.90
2022-10-01T19:24:29.169Z,2.28
2022-10-01T19:27:37.688Z,1.95
2022-10-01T19:30:17.132Z,7.10
2022-10-01T19:33:06.430Z,3.90
2022-10-01T19:35:44.462Z,2.95
2022-10-01T19:38:22.166Z,4.13
2022-10-01T19:40:55.120Z,5.57
2022-10-01T19:43:46.160Z,2.90
2022-10-01T19:46:38.792Z,6.22
2022-10-01T19:49:16.137Z,6.45
2022-10-01T19:51:59.900Z,4.53
2022-10-01T19:54:34.650Z,4.63
2022-10-01T19:57:19.887Z,12.60
2022-10-01T19:59:49.462Z,7.00
2022-10-01T20:02:37.774Z,16.25
2022-10-01T20:05:09.249Z,2.50
2022-10-01T20:08:01.770Z,3.17
2022-10-01T20:11:01.062Z,4.07
2022-10-01T20:13:34.701Z,4.72
2022-10-01T20:16:42.100Z,5.78
2022-10-01T20:19:42.194Z,2.70
2022-10-01T20:22:25.697Z,2.75
2022-10-01T20:25:15.916Z,5.13
2022-10-01T20:28:02.034Z,5.10
2022-10-01T20:30:36.865Z,3.63
2022-10-01T20:33:33.713Z,2.42
2022-10-01T20:36:23.934Z,6.32
2022-10-01T20:39:05.948Z,3.67
2022-10-01T20:41:45.516Z,8.50
2022-10-01T20:44:23.139Z,3.58
2022-10-01T20:47:00.194Z,3.33
2022-10-01T20:49:33.883Z,2.70
2022-10-01T20:52:18.169Z,3.97
2022-10-01T20:54:53.385Z,5.03
2022-10-01T20:57:25.805Z,4.85
2022-10-01T20:59:58.735Z,5.00
2022-10-01T21:02:47.942Z,6.32
2022-10-01T21:05:20.340Z,2.30
2022-10-01T21:07:58.144Z,3.75
2022-10-01T21:10:44.915Z,5.35
2022-10-01T21:13:23.073Z,6.00
2022-10-01T21:16:17.241Z,6.25
2022-10-01T21:19:06.463Z,5.78
2022-10-01T21:21:55.859Z,9.15
2022-10-01T21:24:47.061Z,3.05
2022-10-01T21:27:51.190Z,5.50
2022-10-01T21:30:22.895Z,4.32
2022-10-01T21:32:54.914Z,4.00
2022-10-01T21:35:32.596Z,3.92
2022-10-01T21:38:16.133Z,3.60
2022-10-01T21:41:05.729Z,5.25
2022-10-01T21:43:35.785Z,4.30
2022-10-01T21:46:11.293Z,3.25
2022-10-01T21:49:06.666Z,3.10
2022-10-01T21:51:46.823Z,6.28
2022-10-01T21:54:55.277Z,2.13
2022-10-01T21:57:41.504Z,4.32
2022-10-01T22:00:23.719Z,4.22
2022-10-01T22:03:06.706Z,3.87
2022-10-01T22:05:40.537Z,4.03
2022-10-01T22:08:33.283Z,4.68
2022-10-01T22:11:09.005Z,6.43
2022-10-01T22:13:44.039Z,6.85
2022-10-01T22:16:16.153Z,4.07
2022-10-01T22:18:51.416Z,6.88
2022-10-01T22:21:32.210Z,6.93
2022-10-01T22:24:09.435Z,5.10
2022-10-01T22:26:43.867Z,6.47
2022-10-01T22:29:20.852Z,5.30
2022-10-01T22:31:53.610Z,6.18
2022-10-01T22:37:14.096Z,3.45
2022-10-01T22:39:52.894Z,5.60
2022-10-01T22:42:28.410Z,8.38
2022-10-01T22:45:02.939Z,5.38
2022-10-01T22:47:55.659Z,3.83
2022-10-01T22:50:45.988Z,7.15
2022-10-01T22:53:17.150Z,4.03
2022-10-01T22:55:49.272Z,5.60
2022-10-01T22:58:26.819Z,5.97
2022-10-01T23:01:27.994Z,5.78
2022-10-01T23:04:17.653Z,4.00
2022-10-01T23:06:55.572Z,6.20
2022-10-01T23:09:42.704Z,2.10
2022-10-01T23:12:29.955Z,4.45
2022-10-01T23:15:24.056Z,3.78
2022-10-01T23:18:27.503Z,5.75
2022-10-01T23:23:33.783Z,5.10
2022-10-01T23:26:23.032Z,3.30
2022-10-01T23:29:17.027Z,5.00
2022-10-01T23:32:01.753Z,7.30
2022-10-01T23:34:41.043Z,7.00
2022-10-01T23:37:13.152Z,7.03
2022-10-01T23:39:46.995Z,7.40
2022-10-01T23:42:21.783Z,6.55
2022-10-01T23:45:10.631Z,8.20
2022-10-01T23:47:48.551Z,8.13
2022-10-01T23:50:27.856Z,8.70
2022-10-01T23:53:13.123Z,10.35
2022-10-01T23:56:15.687Z,9.18
2022-10-01T23:58:52.202Z,17.43
